Time;durP1;ratioP1;P1;durP2;ratioP2;P2;SDS_P1;SDS_P2;PMS_P1;PMS_P2;Temp;Humidity;BMP_temperature;BMP_pressure;BME280_temperature;BME280_humidity;BME280_pressure;Samples;Min_cycle;Max_cycle;Signal;HPM_P1;HPM_P2
2023/06/14 00:02:14;;;;;;;11.18;4.70;;;;;;;16.21;55.04;99522.94;7791386;32;37139;-85
2023/06/14 00:06:30;;;;;;;7.90;4.60;;;;;;;16.41;54.25;99525.12;7791391;32;40262;-84
2023/06/14 00:10:47;;;;;;;10.50;4.95;;;;;;;16.35;54.18;99520.91;7777211;32;40032;-86
2023/06/14 00:15:04;;;;;;;9.57;5.18;;;;;;;16.33;54.20;99529.47;7790799;32;37922;-84
2023/06/14 00:19:20;;;;;;;10.07;4.85;;;;;;;16.20;54.56;99524.09;7790917;32;37849;-83
2023/06/14 00:23:37;;;;;;;9.57;4.60;;;;;;;16.12;54.85;99523.69;7791000;32;39842;-83
2023/06/14 00:27:54;;;;;;;9.65;5.22;;;;;;;15.90;55.54;99523.72;7790799;32;40104;-82
2023/06/14 00:32:11;;;;;;;9.80;5.07;;;;;;;16.28;54.21;99521.37;7790573;32;38475;-83
2023/06/14 00:36:27;;;;;;;11.63;5.47;;;;;;;16.30;54.10;99521.84;7790567;32;37941;-83
2023/06/14 00:40:43;;;;;;;11.70;5.60;;;;;;;16.39;53.84;99527.41;7790579;32;39606;-83
2023/06/14 00:45:00;;;;;;;11.57;5.05;;;;;;;16.25;54.22;99532.19;7790511;32;39984;-86
2023/06/14 00:49:17;;;;;;;10.85;5.05;;;;;;;16.12;54.55;99526.44;7776394;32;37588;-84
2023/06/14 00:53:35;;;;;;;10.90;5.43;;;;;;;16.25;54.24;99521.19;7775758;32;38218;-84
2023/06/14 00:57:52;;;;;;;11.43;5.50;;;;;;;16.18;54.55;99526.31;7790216;32;40126;-84
2023/06/14 01:02:09;;;;;;;11.43;5.37;;;;;;;15.92;55.40;99530.56;7790278;32;40898;-83
2023/06/14 01:06:44;;;;;;;10.55;5.37;;;;;;;16.11;54.62;99533.09;7793629;32;37905;-83
2023/06/14 01:11:10;;;;;;;13.43;5.68;;;;;;;16.03;55.02;99520.09;7780988;32;37726;-84
2023/06/14 01:15:29;;;;;;;10.63;5.68;;;;;;;15.97;55.27;99515.88;7780226;32;39017;-84
2023/06/14 01:19:46;;;;;;;11.70;6.45;;;;;;;15.77;55.91;99512.50;7779804;32;40061;-84
2023/06/14 01:24:03;;;;;;;11.48;5.90;;;;;;;15.85;55.61;99512.87;7793605;32;37900;-83
2023/06/14 01:28:20;;;;;;;14.23;6.47;;;;;;;15.88;55.59;99512.25;7793482;32;36824;-84
2023/06/14 01:32:37;;;;;;;12.35;6.40;;;;;;;15.71;55.94;99513.72;7793343;32;39221;-83
2023/06/14 01:36:57;;;;;;;11.80;5.30;;;;;;;15.49;56.74;99516.47;7779061;32;40864;-84
2023/06/14 01:41:13;;;;;;;10.85;5.70;;;;;;;15.59;56.19;99516.22;7793367;32;38372;-84
2023/06/14 01:45:30;;;;;;;11.95;6.00;;;;;;;15.69;56.07;99529.69;7779207;32;37202;-84
2023/06/14 01:49:47;;;;;;;11.88;6.00;;;;;;;15.69;56.00;99515.16;7793260;32;39429;-83
2023/06/14 01:54:03;;;;;;;11.63;6.28;;;;;;;15.64;56.10;99515.28;7792851;32;39932;-85
2023/06/14 01:58:21;;;;;;;10.77;5.80;;;;;;;15.46;56.88;99517.91;7793059;32;38065;-84
2023/06/14 02:02:37;;;;;;;13.02;6.62;;;;;;;15.58;56.49;99520.91;7793126;32;36822;-84
2023/06/14 02:06:53;;;;;;;17.60;5.97;;;;;;;15.50;56.79;99518.09;7792668;32;40149;-85
2023/06/14 02:11:10;;;;;;;12.15;5.68;;;;;;;15.34;57.30;99515.69;7792827;32;40123;-83
2023/06/14 02:15:27;;;;;;;12.95;6.53;;;;;;;15.53;56.58;99506.47;7792612;32;37946;-83
2023/06/14 02:19:43;;;;;;;11.80;6.28;;;;;;;15.35;57.20;99513.75;7792857;32;37175;-85
2023/06/14 02:24:01;;;;;;;13.25;6.45;;;;;;;15.27;57.35;99520.81;7792804;32;39307;-83
2023/06/14 02:28:17;;;;;;;12.57;6.37;;;;;;;15.18;57.65;99515.25;7792768;32;40964;-85
2023/06/14 02:32:35;;;;;;;12.95;6.00;;;;;;;15.34;57.08;99526.69;7792373;32;38624;-83
2023/06/14 02:36:52;;;;;;;10.85;6.20;;;;;;;15.08;57.98;99523.72;7792299;32;37105;-82
2023/06/14 02:41:08;;;;;;;12.85;6.70;;;;;;;15.18;57.66;99533.66;7792640;32;39483;-85
2023/06/14 02:45:25;;;;;;;13.27;6.45;;;;;;;15.13;58.00;99525.53;7792510;32;40567;-84
2023/06/14 02:49:41;;;;;;;11.45;6.15;;;;;;;15.33;57.16;99518.75;7792419;32;37567;-84
2023/06/14 02:53:57;;;;;;;12.32;6.43;;;;;;;15.20;57.53;99515.75;7791802;32;37168;-83
2023/06/14 02:58:14;;;;;;;12.80;6.37;;;;;;;15.21;57.48;99516.53;7792365;32;40131;-83
2023/06/14 03:02:30;;;;;;;11.70;6.68;;;;;;;15.01;58.15;99513.13;7792307;32;40844;-83
2023/06/14 03:06:50;;;;;;;11.07;6.40;;;;;;;15.22;57.54;99509.94;7791915;32;38685;-83
2023/06/14 03:11:06;;;;;;;11.07;5.93;;;;;;;14.99;58.17;99515.38;7792252;32;37210;-83
2023/06/14 03:15:24;;;;;;;13.05;6.60;;;;;;;15.24;57.68;99521.44;7792324;32;39561;-83
2023/06/14 03:19:41;;;;;;;13.35;6.65;;;;;;;15.21;57.80;99522.88;7792110;32;40887;-84
2023/06/14 03:23:57;;;;;;;12.45;6.75;;;;;;;15.02;58.47;99522.19;7792178;32;38795;-84
2023/06/14 03:28:13;;;;;;;13.32;6.50;;;;;;;15.13;58.21;99520.03;7791442;32;37954;-84
2023/06/14 03:32:33;;;;;;;14.00;6.45;;;;;;;15.14;58.26;99525.22;7791887;32;39351;-84
2023/06/14 03:36:49;;;;;;;11.43;6.45;;;;;;;15.19;58.28;99524.28;7791864;32;40131;-84
2023/06/14 03:41:05;;;;;;;13.00;6.72;;;;;;;15.16;58.44;99519.41;7777796;32;37975;-83
2023/06/14 03:45:22;;;;;;;14.40;6.82;;;;;;;15.25;58.25;99516.75;7791849;32;38134;-82
2023/06/14 03:49:38;;;;;;;11.12;6.45;;;;;;;15.50;57.46;99518.88;7791750;32;40737;-83
2023/06/14 03:53:55;;;;;;;11.15;6.35;;;;;;;15.32;58.20;99522.63;7791341;32;40658;-83
2023/06/14 03:58:32;;;;;;;12.45;6.78;;;;;;;15.26;58.53;99521.91;7791132;32;38082;-83
2023/06/14 04:02:48;;;;;;;11.82;6.47;;;;;;;15.45;58.01;99530.00;7791527;32;37061;-82
2023/06/14 04:07:05;;;;;;;13.32;6.65;;;;;;;15.54;57.85;99532.84;7791087;32;39442;-83
2023/06/14 04:11:21;;;;;;;11.40;6.45;;;;;;;15.58;57.76;99548.38;7791275;32;40028;-85
2023/06/14 04:15:41;;;;;;;13.93;6.47;;;;;;;15.57;57.98;99543.19;7791005;32;38635;-83
2023/06/14 04:20:01;;;;;;;12.37;6.55;;;;;;;15.52;58.29;99549.63;7791238;32;37104;-83
2023/06/14 04:24:17;;;;;;;13.18;6.62;;;;;;;15.74;57.64;99546.06;7790999;32;39494;-85
2023/06/14 04:28:40;;;;;;;12.57;6.60;;;;;;;15.67;58.05;99548.44;7790850;32;39920;-85
2023/06/14 04:32:57;;;;;;;14.23;7.22;;;;;;;15.76;58.01;99548.53;7790642;32;39226;-84
2023/06/14 04:37:13;;;;;;;13.13;7.28;;;;;;;16.01;57.33;99555.34;7791050;32;37175;-85
2023/06/14 04:41:31;;;;;;;12.18;6.28;;;;;;;16.09;57.22;99562.00;7794043;32;39420;-85
2023/06/14 04:45:47;;;;;;;11.55;6.10;;;;;;;16.10;57.68;99560.91;7793973;32;40893;-84
2023/06/14 04:50:04;;;;;;;14.60;6.32;;;;;;;16.43;56.88;99564.13;7793631;32;38446;-83
2023/06/14 04:54:20;;;;;;;11.43;6.37;;;;;;;16.72;55.98;99557.31;7793868;32;37313;-83
2023/06/14 04:58:38;;;;;;;12.65;6.22;;;;;;;16.88;55.72;99561.28;7793746;32;39036;-84
2023/06/14 05:02:55;;;;;;;11.50;5.97;;;;;;;16.81;56.30;99569.16;7793760;32;40891;-84
2023/06/14 05:07:12;;;;;;;11.60;5.68;;;;;;;16.97;56.30;99569.56;7793558;32;38681;-83
2023/06/14 05:11:28;;;;;;;11.65;6.03;;;;;;;17.21;56.10;99565.56;7793696;32;37347;-83
2023/06/14 05:15:44;;;;;;;11.02;6.15;;;;;;;17.38;55.86;99573.03;7793628;32;39404;-84
2023/06/14 05:20:01;;;;;;;12.90;6.22;;;;;;;17.55;55.66;99561.22;7793618;32;40597;-85
2023/06/14 05:24:17;;;;;;;12.43;6.30;;;;;;;17.34;55.52;99564.59;7793645;32;38718;-84
2023/06/14 05:28:34;;;;;;;12.75;6.12;;;;;;;17.17;56.18;99557.13;7793479;32;37168;-85
2023/06/14 05:32:50;;;;;;;10.95;5.75;;;;;;;17.86;54.95;99566.59;7792018;32;39448;-83
2023/06/14 05:37:07;;;;;;;11.25;5.87;;;;;;;17.97;54.28;99561.53;7791935;32;39683;-84
2023/06/14 05:41:27;;;;;;;11.90;6.53;;;;;;;17.95;54.45;99564.63;7791906;32;38140;-84
2023/06/14 05:45:43;;;;;;;10.15;5.62;;;;;;;18.17;54.28;99555.34;7791980;32;37188;-84
2023/06/14 05:49:59;;;;;;;11.27;6.07;;;;;;;18.47;53.22;99562.88;7791189;32;39341;-84
2023/06/14 05:54:16;;;;;;;11.07;5.60;;;;;;;18.50;52.91;99560.25;7791378;32;39936;-83
2023/06/14 05:58:32;;;;;;;10.82;5.72;;;;;;;18.72;52.65;99564.72;7791428;32;38060;-84
2023/06/14 06:02:48;;;;;;;10.30;5.45;;;;;;;19.00;52.13;99558.75;7791698;32;37246;-84
2023/06/14 06:07:05;;;;;;;10.93;5.87;;;;;;;19.00;51.76;99564.28;7791394;32;39400;-83
2023/06/14 06:11:21;;;;;;;8.88;5.10;;;;;;;19.25;51.36;99561.72;7791391;32;40088;-84
2023/06/14 06:15:38;;;;;;;15.80;6.22;;;;;;;19.22;51.38;99565.94;7791176;32;37851;-83
2023/06/14 06:19:54;;;;;;;11.02;5.32;;;;;;;19.48;50.71;99564.94;7777326;32;37146;-84
2023/06/14 06:24:11;;;;;;;10.95;5.28;;;;;;;19.82;49.92;99563.88;7776000;32;39876;-77
2023/06/14 06:28:27;;;;;;;11.25;6.22;;;;;;;19.92;49.74;99565.44;7791253;32;40176;-75
2023/06/14 06:32:43;;;;;;;11.02;5.35;;;;;;;20.13;49.19;99564.53;7787725;32;152334;-76
2023/06/14 06:37:00;;;;;;;11.23;5.78;;;;;;;20.40;49.21;99563.12;7792674;32;37309;-76
2023/06/14 06:41:17;;;;;;;9.52;5.70;;;;;;;20.85;48.14;99556.72;7790308;32;39814;-76
2023/06/14 06:45:33;;;;;;;11.57;5.70;;;;;;;20.74;46.94;99561.13;7786860;32;40092;-78
2023/06/14 06:49:49;;;;;;;10.23;5.12;;;;;;;20.55;47.62;99565.22;7794331;32;38747;-86
2023/06/14 06:54:06;;;;;;;11.85;5.25;;;;;;;20.79;47.66;99563.66;7797038;32;37868;-87
2023/06/14 06:58:22;;;;;;;9.52;4.75;;;;;;;20.96;47.41;99563.41;7794655;32;38983;-86
2023/06/14 07:02:38;;;;;;;8.40;4.97;;;;;;;20.90;48.44;99564.78;7791565;32;40017;-85
2023/06/14 07:06:55;;;;;;;8.80;5.07;;;;;;;21.56;47.92;99569.25;7794117;32;37672;-86
2023/06/14 07:11:12;;;;;;;11.45;5.07;;;;;;;21.92;46.63;99570.28;7793857;32;37225;-86
2023/06/14 07:15:28;;;;;;;12.02;5.35;;;;;;;21.72;46.93;99566.53;7781928;32;40140;-84
2023/06/14 07:19:45;;;;;;;15.20;5.12;;;;;;;22.05;46.83;99571.00;7791021;32;39712;-85
2023/06/14 07:24:01;;;;;;;10.27;5.32;;;;;;;22.24;47.10;99578.66;7793649;32;37211;-85
2023/06/14 07:28:18;;;;;;;12.48;5.45;;;;;;;22.56;45.70;99577.91;7789240;32;37235;-85
2023/06/14 07:32:35;;;;;;;10.88;5.32;;;;;;;22.79;44.74;99578.91;7790514;32;39397;-85
2023/06/14 07:36:54;;;;;;;9.23;5.20;;;;;;;23.01;44.47;99574.69;7785094;32;40035;-84
2023/06/14 07:41:10;;;;;;;8.93;4.70;;;;;;;22.76;43.11;99574.06;7789051;32;37901;-86
2023/06/14 07:45:26;;;;;;;9.98;4.75;;;;;;;22.88;43.04;99579.53;7786534;32;37117;-86
2023/06/14 07:49:43;;;;;;;10.75;5.30;;;;;;;22.63;42.20;99587.25;7788440;32;39290;-85
2023/06/14 07:54:02;;;;;;;9.85;5.07;;;;;;;22.58;43.73;99592.28;7789334;32;39549;-83
2023/06/14 07:58:18;;;;;;;9.48;5.03;;;;;;;22.94;43.48;99584.81;7777112;32;38291;-82
2023/06/14 08:02:34;;;;;;;11.63;4.65;;;;;;;23.01;44.02;99585.00;7790881;32;38099;-86
2023/06/14 08:06:51;;;;;;;11.50;4.72;;;;;;;23.43;42.20;99584.41;7791490;32;39158;-85
2023/06/14 08:11:07;;;;;;;11.35;5.07;;;;;;;23.53;41.02;99592.19;7791138;32;40869;-85
2023/06/14 08:15:24;;;;;;;9.65;4.90;;;;;;;23.15;42.14;99595.69;7783896;32;38825;-85
2023/06/14 08:19:40;;;;;;;8.45;4.90;;;;;;;23.23;43.20;99589.94;7788186;32;37799;-83
2023/06/14 08:23:59;;;;;;;13.27;4.62;;;;;;;23.62;42.54;99592.75;7791257;32;39119;-84
2023/06/14 08:28:15;;;;;;;8.13;4.60;;;;;;;23.35;42.48;99593.75;7791176;32;39675;-84
2023/06/14 08:32:31;;;;;;;8.73;4.70;;;;;;;22.43;43.02;99594.66;7790515;32;38717;-82
2023/06/14 08:36:48;;;;;;;13.43;4.25;;;;;;;22.84;44.42;99600.88;7790745;32;37620;-84
2023/06/14 08:41:05;;;;;;;10.07;4.35;;;;;;;22.82;42.27;99596.84;7790600;32;40130;-81
2023/06/14 08:45:23;;;;;;;9.32;4.80;;;;;;;22.63;41.53;99600.34;7790085;32;39886;-80
2023/06/14 08:49:44;;;;;;;9.05;4.22;;;;;;;22.90;41.99;99606.16;7784827;32;37972;-81
2023/06/14 08:54:01;;;;;;;7.53;4.30;;;;;;;23.05;41.78;99608.94;7790472;32;37600;-80
2023/06/14 08:58:18;;;;;;;7.07;3.97;;;;;;;23.01;40.11;99621.16;7789316;32;39536;-78
2023/06/14 09:02:35;;;;;;;8.35;4.22;;;;;;;22.79;41.57;99622.59;7789593;32;39948;-78
2023/06/14 09:06:52;;;;;;;10.50;3.97;;;;;;;22.80;41.23;99624.19;7790005;32;37971;-79
2023/06/14 09:11:13;;;;;;;10.85;4.40;;;;;;;23.04;42.05;99628.75;7790103;32;36890;-78
2023/06/14 09:15:32;;;;;;;10.85;4.65;;;;;;;22.78;41.91;99632.88;7789696;32;38997;-83
2023/06/14 09:19:49;;;;;;;6.45;3.85;;;;;;;22.97;41.13;99631.34;7790429;32;40629;-76
2023/06/14 09:24:06;;;;;;;6.72;3.75;;;;;;;22.92;40.48;99638.00;7795107;32;38853;-85
2023/06/14 09:28:27;;;;;;;7.00;3.85;;;;;;;23.46;41.61;99642.09;7795926;32;37207;-83
2023/06/14 09:32:44;;;;;;;10.10;4.12;;;;;;;23.27;41.66;99637.28;7795409;32;39287;-84
2023/06/14 09:37:00;;;;;;;7.22;3.80;;;;;;;22.57;41.03;99637.88;7777831;32;40007;-83
2023/06/14 09:41:17;;;;;;;7.97;3.58;;;;;;;22.54;40.32;99633.84;7768044;32;37601;-83
2023/06/14 09:45:33;;;;;;;12.48;4.05;;;;;;;22.07;42.80;99632.53;7767691;32;37619;-82
2023/06/14 09:49:52;;;;;;;11.15;4.00;;;;;;;22.29;41.60;99628.41;7766412;32;39348;-79
2023/06/14 09:54:09;;;;;;;12.25;4.37;;;;;;;21.89;43.70;99632.03;7766160;32;40248;-76
2023/06/14 09:58:28;;;;;;;7.75;3.97;;;;;;;21.71;43.26;99633.47;7781331;32;37917;-74
2023/06/14 10:02:50;;;;;;;7.80;4.20;;;;;;;21.93;44.10;99626.59;7793335;32;36457;-76
2023/06/14 10:07:07;;;;;;;12.30;4.50;;;;;;;22.01;43.09;99628.41;7793230;32;39506;-76
2023/06/14 10:11:25;;;;;;;16.48;4.60;;;;;;;22.18;44.71;99629.25;7792990;32;39786;-75
2023/06/14 10:15:47;;;;;;;10.00;4.15;;;;;;;22.21;45.54;99623.78;7779181;32;37582;-75
2023/06/14 10:20:39;;;;;;;9.47;3.93;;;;;;;22.03;44.62;99620.53;7792141;32;37295;-78
2023/06/14 10:24:56;;;;;;;8.10;4.22;;;;;;;22.30;46.01;99624.50;7765102;32;39218;-76
2023/06/14 10:29:12;;;;;;;11.82;4.90;;;;;;;22.87;44.05;99627.97;7791011;32;41238;-76
2023/06/14 10:33:29;;;;;;;9.00;4.43;;;;;;;22.28;43.47;99632.38;7792717;32;38434;-76
2023/06/14 10:37:47;;;;;;;10.23;4.70;;;;;;;23.07;44.82;99622.50;7785212;32;37876;-75
2023/06/14 10:42:05;;;;;;;11.88;5.15;;;;;;;22.96;43.59;99621.41;7787557;32;38720;-75
2023/06/14 10:46:28;;;;;;;13.18;4.87;;;;;;;23.13;43.35;99615.50;7787645;32;40846;-76
2023/06/14 10:50:47;;;;;;;9.55;4.62;;;;;;;22.86;43.96;99611.63;7789555;32;37782;-76
2023/06/14 10:55:10;;;;;;;9.20;4.68;;;;;;;22.66;45.56;99619.06;7759622;32;37015;-76
2023/06/14 10:59:27;;;;;;;9.93;4.53;;;;;;;22.59;46.62;99613.31;7783544;32;38384;-76
2023/06/14 11:03:51;;;;;;;8.63;4.18;;;;;;;22.41;44.64;99616.44;7792219;32;40026;-78
2023/06/14 11:08:38;;;;;;;9.40;4.07;;;;;;;22.98;42.14;99613.53;7791810;32;39091;-77
2023/06/14 11:12:55;;;;;;;11.90;5.28;;;;;;;23.01;44.27;99608.03;7792302;32;36959;-78
2023/06/14 11:17:13;;;;;;;9.57;4.28;;;;;;;22.58;44.25;99611.72;7775131;32;38925;-78
2023/06/14 11:21:31;;;;;;;9.32;4.40;;;;;;;23.09;43.83;99606.25;7788321;32;40082;-79
2023/06/14 11:25:51;;;;;;;9.02;4.40;;;;;;;23.51;41.43;99605.66;7788514;32;37954;-78
2023/06/14 11:30:11;;;;;;;6.78;4.05;;;;;;;24.79;42.06;99602.22;7775323;32;37841;-78
2023/06/14 11:34:28;;;;;;;6.40;2.80;;;;;;;25.11;39.27;99609.09;7790929;32;40091;-78
2023/06/14 11:38:44;;;;;;;6.78;2.72;;;;;;;25.63;36.05;99589.13;7791805;32;40756;-79
2023/06/14 11:43:02;;;;;;;6.70;2.80;;;;;;;25.40;34.90;99592.81;7791950;32;38688;-79
2023/06/14 11:47:18;;;;;;;7.75;2.65;;;;;;;25.38;32.64;99588.78;7791425;32;37776;-79
2023/06/14 11:51:35;;;;;;;7.72;3.03;;;;;;;25.63;30.66;99592.72;7791929;32;40308;-80
2023/06/14 11:55:51;;;;;;;5.18;2.67;;;;;;;25.89;30.50;99579.06;7791820;32;39950;-79
2023/06/14 12:00:12;;;;;;;4.90;2.22;;;;;;;25.08;30.70;99584.75;7791614;32;38803;-78
2023/06/14 12:04:28;;;;;;;5.15;2.25;;;;;;;26.14;31.00;99579.41;7778300;32;37006;-79
2023/06/14 12:08:45;;;;;;;5.07;2.62;;;;;;;26.22;28.52;99575.50;7791651;32;39898;-77
2023/06/14 12:13:01;;;;;;;6.62;2.62;;;;;;;25.68;29.89;99575.66;7791552;32;40148;-78
2023/06/14 12:17:19;;;;;;;5.10;2.72;;;;;;;25.68;29.87;99581.25;7791119;32;37872;-78
2023/06/14 12:21:38;;;;;;;5.15;2.30;;;;;;;25.56;29.66;99583.44;7791347;32;37941;-78
2023/06/14 12:26:00;;;;;;;5.78;2.30;;;;;;;26.02;29.97;99583.25;7777757;32;39985;-78
2023/06/14 12:30:16;;;;;;;8.25;2.55;;;;;;;26.55;32.20;99583.00;7790951;32;40083;-78
2023/06/14 12:34:32;;;;;;;3.95;2.40;;;;;;;27.26;31.44;99570.78;7791061;32;37994;-78
2023/06/14 12:38:50;;;;;;;4.45;2.60;;;;;;;27.39;29.10;99571.31;7790880;32;36792;-78
2023/06/14 12:43:06;;;;;;;4.30;2.22;;;;;;;26.49;28.50;99581.75;7790832;32;40147;-77
2023/06/14 12:47:22;;;;;;;5.32;2.40;;;;;;;27.52;25.93;99583.75;7790833;32;41382;-77
2023/06/14 12:51:40;;;;;;;10.80;2.65;;;;;;;27.00;26.71;99585.81;7776648;32;38381;-78
2023/06/14 12:55:56;;;;;;;4.75;2.50;;;;;;;26.89;27.56;99587.69;7790599;32;38015;-78
2023/06/14 13:00:13;;;;;;;5.57;2.33;;;;;;;25.74;26.01;99587.28;7792428;32;39886;-77
2023/06/14 13:04:30;;;;;;;6.28;2.37;;;;;;;26.28;26.75;99585.12;7794028;32;39799;-77
2023/06/14 13:08:46;;;;;;;6.53;2.40;;;;;;;25.30;25.11;99579.50;7793850;32;38040;-78
2023/06/14 13:13:02;;;;;;;5.72;2.33;;;;;;;25.63;28.14;99577.94;7794011;32;37125;-78
2023/06/14 13:17:19;;;;;;;4.15;2.40;;;;;;;25.54;27.79;99574.66;7793820;32;39876;-78
2023/06/14 13:21:36;;;;;;;5.50;2.40;;;;;;;25.69;29.14;99565.28;7793777;32;40943;-77
2023/06/14 13:25:52;;;;;;;4.57;2.30;;;;;;;25.41;28.29;99574.87;7793628;32;37798;-78
2023/06/14 13:30:09;;;;;;;3.95;2.28;;;;;;;25.66;30.51;99569.66;7793586;32;37967;-78
2023/06/14 13:34:25;;;;;;;14.98;2.72;;;;;;;25.86;30.06;99570.28;7793741;32;39402;-79
2023/06/14 13:38:42;;;;;;;4.05;2.17;;;;;;;25.83;29.54;99565.44;7793509;32;39892;-78
2023/06/14 13:42:58;;;;;;;4.50;2.20;;;;;;;25.78;29.50;99563.00;7793359;32;38107;-77
2023/06/14 13:47:14;;;;;;;3.45;2.15;;;;;;;24.18;29.13;99571.22;7793531;32;37316;-79
2023/06/14 13:51:31;;;;;;;3.90;2.42;;;;;;;24.70;29.80;99567.03;7793543;32;38942;-78
2023/06/14 13:55:47;;;;;;;8.77;2.08;;;;;;;24.63;27.08;99558.53;7793434;32;39883;-78
2023/06/14 14:00:04;;;;;;;4.40;2.10;;;;;;;25.34;27.38;99552.47;7779261;32;37962;-78
2023/06/14 14:04:20;;;;;;;5.95;2.60;;;;;;;25.49;26.93;99543.13;7793294;32;37897;-78
2023/06/14 14:08:37;;;;;;;5.12;2.30;;;;;;;26.01;25.50;99548.94;7793117;32;40112;-79
2023/06/14 14:12:54;;;;;;;9.40;2.35;;;;;;;25.79;25.79;99553.44;7793122;32;40052;-78
2023/06/14 14:17:10;;;;;;;6.40;2.42;;;;;;;26.13;26.00;99547.88;7792963;32;39266;-79
2023/06/14 14:21:27;;;;;;;6.40;2.10;;;;;;;26.13;25.68;99544.25;7793103;32;37716;-78
2023/06/14 14:25:43;;;;;;;5.35;2.37;;;;;;;26.15;26.96;99548.28;7792886;32;40165;-78
2023/06/14 14:29:59;;;;;;;5.25;2.62;;;;;;;25.96;26.77;99542.91;7792623;32;40050;-78
2023/06/14 14:34:16;;;;;;;4.00;2.10;;;;;;;25.82;27.68;99549.09;7792846;32;37884;-77
2023/06/14 14:38:32;;;;;;;9.50;2.87;;;;;;;25.68;26.95;99552.50;7792442;32;37200;-78
2023/06/14 14:42:48;;;;;;;9.38;2.50;;;;;;;25.63;27.89;99550.87;7792803;32;40202;-78
2023/06/14 14:47:05;;;;;;;5.60;2.70;;;;;;;25.29;26.88;99555.59;7778867;32;39612;-78
2023/06/14 14:51:22;;;;;;;5.47;2.17;;;;;;;24.93;26.66;99541.09;7792629;32;38717;-77
2023/06/14 14:55:40;;;;;;;7.00;2.28;;;;;;;24.52;27.58;99557.50;7792668;32;37057;-78
2023/06/14 14:59:59;;;;;;;11.98;2.87;;;;;;;24.84;27.54;99548.94;7792720;32;39291;-78
2023/06/14 15:04:16;;;;;;;6.85;2.72;;;;;;;24.34;28.76;99548.84;7792543;32;40008;-79
2023/06/14 15:08:32;;;;;;;5.50;2.33;;;;;;;24.21;30.31;99550.19;7792344;32;37909;-78
2023/06/14 15:12:48;;;;;;;5.87;2.40;;;;;;;24.71;29.29;99540.75;7792411;32;37318;-78
2023/06/14 15:17:05;;;;;;;4.75;2.10;;;;;;;24.81;29.20;99539.31;7792396;32;40199;-79
2023/06/14 15:21:23;;;;;;;5.28;2.83;;;;;;;24.65;29.01;99542.25;7791575;32;40922;-78
2023/06/14 15:25:40;;;;;;;5.75;2.33;;;;;;;24.63;30.35;99544.63;7792230;32;38759;-78
2023/06/14 15:29:56;;;;;;;4.97;2.15;;;;;;;24.94;28.98;99537.13;7792180;32;37142;-78
2023/06/14 15:34:13;;;;;;;3.45;1.92;;;;;;;25.02;27.72;99533.25;7778162;32;39074;-78
2023/06/14 15:38:29;;;;;;;3.87;2.10;;;;;;;25.16;26.56;99531.84;7791989;32;39901;-78
2023/06/14 15:42:45;;;;;;;4.87;2.03;;;;;;;25.45;27.12;99528.28;7778262;32;38036;-77
2023/06/14 15:47:03;;;;;;;6.18;2.10;;;;;;;25.03;27.43;99522.94;7792032;32;37063;-77
2023/06/14 15:51:19;;;;;;;3.45;2.08;;;;;;;25.28;27.36;99528.87;7791878;32;39880;-78
2023/06/14 15:55:35;;;;;;;7.20;2.15;;;;;;;25.48;28.10;99526.75;7791873;32;40000;-78
2023/06/14 15:59:52;;;;;;;5.90;2.20;;;;;;;26.06;27.08;99522.66;7791913;32;39602;-78
2023/06/14 16:04:08;;;;;;;6.50;2.20;;;;;;;26.20;28.18;99531.19;7791728;32;36947;-77
2023/06/14 16:08:24;;;;;;;5.80;2.10;;;;;;;26.76;28.69;99528.50;7791622;32;39679;-78
2023/06/14 16:12:56;;;;;;;3.90;2.47;;;;;;;26.96;26.40;99524.25;7791655;32;39950;-78
2023/06/14 16:17:12;;;;;;;7.45;2.45;;;;;;;27.01;26.13;99525.06;7791437;32;38151;-78
2023/06/14 16:21:29;;;;;;;2.83;1.95;;;;;;;26.15;27.46;99530.75;7777414;32;36705;-78
2023/06/14 16:25:45;;;;;;;4.32;1.95;;;;;;;25.90;28.14;99536.81;7791257;32;39250;-78
2023/06/14 16:30:01;;;;;;;3.40;1.80;;;;;;;25.95;28.02;99530.13;7791055;32;40923;-79
2023/06/14 16:34:18;;;;;;;5.80;2.30;;;;;;;25.78;28.19;99540.66;7779072;32;38655;-78
2023/06/14 16:38:34;;;;;;;8.13;1.87;;;;;;;25.93;27.62;99546.44;7794276;32;37272;-78
2023/06/14 16:42:51;;;;;;;3.72;2.10;;;;;;;25.37;29.12;99548.12;7794503;32;39985;-79
2023/06/14 16:47:08;;;;;;;5.32;2.10;;;;;;;25.36;28.98;99552.91;7794237;32;40829;-79
2023/06/14 16:51:24;;;;;;;4.12;2.00;;;;;;;25.38;28.47;99561.69;7780238;32;37953;-79
2023/06/14 16:55:41;;;;;;;3.70;2.30;;;;;;;25.18;29.54;99551.81;7794184;32;37632;-79
2023/06/14 16:59:57;;;;;;;2.92;2.00;;;;;;;25.46;29.67;99560.63;7794085;32;39383;-80
2023/06/14 17:04:14;;;;;;;4.18;2.10;;;;;;;25.27;30.56;99574.69;7793985;32;40745;-79
2023/06/14 17:08:30;;;;;;;3.60;1.90;;;;;;;25.26;31.57;99565.50;7793940;32;37989;-79
2023/06/14 17:12:47;;;;;;;4.50;2.45;;;;;;;24.91;29.58;99569.34;7793963;32;36768;-78
2023/06/14 17:17:03;;;;;;;12.57;2.28;;;;;;;24.76;31.20;99580.66;7793782;32;39062;-79
2023/06/14 17:21:20;;;;;;;3.15;2.12;;;;;;;24.64;30.64;99568.50;7793627;32;40133;-77
2023/06/14 17:25:37;;;;;;;3.53;2.05;;;;;;;24.44;30.51;99578.06;7793700;32;37952;-77
2023/06/14 17:29:53;;;;;;;2.40;1.92;;;;;;;24.61;30.40;99579.59;7793555;32;37228;-78
2023/06/14 17:34:10;;;;;;;5.90;2.03;;;;;;;24.54;31.12;99589.44;7793699;32;39389;-78
2023/06/14 17:38:28;;;;;;;3.55;2.10;;;;;;;24.57;31.31;99584.31;7793493;32;40799;-78
2023/06/14 17:42:45;;;;;;;3.05;2.17;;;;;;;24.46;30.97;99589.66;7793571;32;38227;-79
2023/06/14 17:47:01;;;;;;;3.70;1.92;;;;;;;24.38;31.51;99595.09;7793143;32;36731;-79
2023/06/14 17:51:19;;;;;;;11.30;2.20;;;;;;;24.44;30.51;99587.25;7793516;32;39295;-78
2023/06/14 17:55:35;;;;;;;2.78;1.95;;;;;;;24.40;31.74;99607.84;7793339;32;40549;-77
2023/06/14 17:59:51;;;;;;;6.22;2.50;;;;;;;24.49;31.99;99606.44;7793151;32;38091;-79
2023/06/14 18:04:07;;;;;;;5.43;2.60;;;;;;;24.40;32.55;99614.22;7793380;32;37359;-78
2023/06/14 18:08:24;;;;;;;5.40;2.00;;;;;;;24.33;33.28;99611.31;7793270;32;40036;-78
2023/06/14 18:12:40;;;;;;;5.50;2.20;;;;;;;24.38;33.77;99620.16;7793089;32;40888;-81
2023/06/14 18:16:58;;;;;;;4.12;2.37;;;;;;;24.25;33.35;99621.50;7779174;32;38595;-81
2023/06/14 18:21:14;;;;;;;4.03;2.28;;;;;;;24.12;33.51;99620.06;7793059;32;37822;-80
2023/06/14 18:25:31;;;;;;;5.00;2.35;;;;;;;24.04;34.01;99624.66;7793133;32;39904;-80
2023/06/14 18:29:47;;;;;;;5.05;2.00;;;;;;;23.89;34.68;99623.59;7792880;32;39697;-79
2023/06/14 18:34:06;;;;;;;5.78;2.25;;;;;;;23.86;35.16;99626.28;7792951;32;39528;-77
2023/06/14 18:38:22;;;;;;;3.40;2.00;;;;;;;23.61;36.41;99624.56;7789363;32;36795;-77
2023/06/14 18:42:39;;;;;;;4.97;2.33;;;;;;;23.31;37.39;99629.81;7786728;32;39380;-78
2023/06/14 18:46:55;;;;;;;3.83;2.25;;;;;;;23.29;37.06;99634.16;7791837;32;40045;-73
2023/06/14 18:51:12;;;;;;;7.93;2.80;;;;;;;23.02;39.03;99644.97;7791401;32;38248;-77
2023/06/14 18:55:28;;;;;;;4.62;2.47;;;;;;;22.91;39.80;99649.47;7786730;32;36983;-79
2023/06/14 18:59:45;;;;;;;5.03;2.80;;;;;;;22.82;39.99;99656.00;7765095;32;39418;-79
2023/06/14 19:04:01;;;;;;;4.60;2.62;;;;;;;22.70;40.00;99664.44;7782595;32;39995;-79
2023/06/14 19:08:18;;;;;;;6.40;2.53;;;;;;;22.41;40.84;99679.53;7790565;32;38674;-78
2023/06/14 19:12:34;;;;;;;6.80;2.70;;;;;;;22.10;41.38;99676.25;7791460;32;37064;-78
2023/06/14 19:16:51;;;;;;;4.68;2.17;;;;;;;22.01;41.79;99678.38;7792311;32;40320;-78
2023/06/14 19:21:08;;;;;;;5.28;2.45;;;;;;;21.85;41.32;99675.53;7780336;32;40749;-77
2023/06/14 19:25:24;;;;;;;9.23;2.65;;;;;;;21.81;40.61;99687.66;7778177;32;37846;-76
2023/06/14 19:29:40;;;;;;;4.62;2.55;;;;;;;21.70;41.32;99695.66;7785369;32;38018;-76
2023/06/14 19:33:56;;;;;;;4.55;2.40;;;;;;;21.49;41.94;99693.84;7785880;32;39356;-77
2023/06/14 19:38:14;;;;;;;6.95;2.60;;;;;;;21.54;42.13;99699.16;7764952;32;40051;-77
2023/06/14 19:42:31;;;;;;;3.28;2.30;;;;;;;21.44;42.45;99698.75;7789746;32;38652;-77
2023/06/14 19:46:47;;;;;;;8.05;2.75;;;;;;;21.42;42.43;99706.63;7792069;32;37944;-78
2023/06/14 19:51:04;;;;;;;9.07;2.40;;;;;;;21.14;43.05;99710.06;7792003;32;40005;-77
2023/06/14 19:55:20;;;;;;;10.48;2.47;;;;;;;21.06;43.15;99708.22;7790887;32;39938;-77
2023/06/14 19:59:38;;;;;;;6.00;2.53;;;;;;;20.88;43.43;99713.97;7791066;32;37857;-81
2023/06/14 20:03:54;;;;;;;5.43;2.25;;;;;;;20.66;43.85;99709.63;7773768;32;37127;-80